createdAt,value
2023-02-21T00:02:12.907Z,9.60
2023-02-21T00:05:00.763Z,9.50
2023-02-21T00:07:51.675Z,9.50
2023-02-21T00:10:37.906Z,9.60
2023-02-21T00:13:23.884Z,9.50
2023-02-21T00:16:10.148Z,9.50
2023-02-21T00:18:57.084Z,9.40
2023-02-21T00:21:47.184Z,9.20
2023-02-21T00:24:34.342Z,9.30
2023-02-21T00:27:20.976Z,9.50
2023-02-21T00:30:07.245Z,9.60
2023-02-21T00:32:53.994Z,9.70
2023-02-21T00:35:40.405Z,9.50
2023-02-21T00:38:29.159Z,9.50
2023-02-21T00:41:15.297Z,9.50
2023-02-21T00:44:01.893Z,9.50
2023-02-21T00:46:48.405Z,9.40
2023-02-21T00:49:34.910Z,9.50
2023-02-21T00:52:20.738Z,9.30
2023-02-21T00:55:08.418Z,9.00
2023-02-21T00:57:54.402Z,8.90
2023-02-21T01:00:42.744Z,8.90
2023-02-21T01:03:29.255Z,8.90
2023-02-21T01:06:16.399Z,9.00
2023-02-21T01:09:03.210Z,9.00
2023-02-21T01:11:52.420Z,8.90
2023-02-21T01:14:38.768Z,9.10
2023-02-21T01:17:24.789Z,9.30
2023-02-21T01:20:11.054Z,9.20
2023-02-21T01:22:57.537Z,9.30
2023-02-21T01:25:43.870Z,9.30
2023-02-21T01:28:31.320Z,9.30
2023-02-21T01:31:17.907Z,9.30
2023-02-21T01:34:04.353Z,9.20
2023-02-21T01:36:50.747Z,9.30
2023-02-21T01:39:37.070Z,9.20
2023-02-21T01:42:23.276Z,9.00
2023-02-21T01:45:57.498Z,8.90
2023-02-21T01:48:46.034Z,8.70
2023-02-21T01:51:36.490Z,8.80
2023-02-21T01:54:24.637Z,8.80
2023-02-21T01:57:10.985Z,8.80
2023-02-21T01:59:57.475Z,8.80
2023-02-21T02:02:50.034Z,8.80
2023-02-21T02:05:37.017Z,8.80
2023-02-21T02:08:23.565Z,8.70
2023-02-21T02:11:21.119Z,8.60
2023-02-21T02:14:06.040Z,8.50
2023-02-21T02:16:46.276Z,8.60
2023-02-21T02:19:53.474Z,8.70
2023-02-21T02:22:39.896Z,8.80
2023-02-21T02:25:22.620Z,8.80
2023-02-21T02:28:11.306Z,8.90
2023-02-21T02:31:06.543Z,8.80
2023-02-21T02:34:20.830Z,8.70
2023-02-21T02:36:54.390Z,8.70
2023-02-21T02:39:30.927Z,8.80
2023-02-21T02:42:08.887Z,8.90
2023-02-21T02:44:41.839Z,8.80
2023-02-21T02:47:19.987Z,8.80
2023-02-21T02:49:51.300Z,9.00
2023-02-21T02:52:21.632Z,9.10
2023-02-21T02:55:00.425Z,9.20
2023-02-21T02:57:38.287Z,9.10
2023-02-21T03:00:10.685Z,9.20
2023-02-21T03:02:52.801Z,9.10
2023-02-21T03:05:38.615Z,9.10
2023-02-21T03:08:18.391Z,9.00
2023-02-21T03:10:53.450Z,9.20
2023-02-21T03:13:30.478Z,9.20
2023-02-21T03:16:05.829Z,9.20
2023-02-21T03:18:41.607Z,9.20
2023-02-21T03:21:18.744Z,9.20
2023-02-21T03:23:53.504Z,9.50
2023-02-21T03:26:22.238Z,9.40
2023-02-21T03:28:57.621Z,9.20
2023-02-21T03:31:32.363Z,9.10
2023-02-21T03:34:01.145Z,9.10
2023-02-21T03:36:30.531Z,9.20
2023-02-21T03:39:01.032Z,9.20
2023-02-21T03:41:29.876Z,9.20
2023-02-21T03:43:58.671Z,9.20
2023-02-21T03:46:27.628Z,9.20
2023-02-21T03:48:56.362Z,9.20
2023-02-21T03:51:29.621Z,9.20
2023-02-21T03:53:58.398Z,9.30
2023-02-21T03:56:42.144Z,9.40
2023-02-21T03:59:27.931Z,9.30
2023-02-21T04:01:57.266Z,9.20
2023-02-21T04:04:27.109Z,9.20
2023-02-21T04:07:05.783Z,9.20
2023-02-21T04:09:34.836Z,9.20
2023-02-21T04:12:05.447Z,9.00
2023-02-21T04:14:36.177Z,9.00
2023-02-21T04:17:05.866Z,8.90
2023-02-21T04:19:35.183Z,8.80
2023-02-21T04:22:05.829Z,8.70
2023-02-21T04:24:34.825Z,8.70
2023-02-21T04:27:05.277Z,8.70
2023-02-21T04:29:38.081Z,8.50
2023-02-21T04:32:07.129Z,8.40
2023-02-21T04:34:36.847Z,8.30
2023-02-21T04:37:05.962Z,8.30
2023-02-21T04:39:34.895Z,8.40
2023-02-21T04:42:05.242Z,8.50
2023-02-21T04:44:34.551Z,8.70
2023-02-21T04:47:03.183Z,8.70
2023-02-21T04:49:31.871Z,8.60
2023-02-21T04:52:00.656Z,8.60
2023-02-21T04:54:29.371Z,8.80
2023-02-21T04:56:58.114Z,8.90
2023-02-21T04:59:28.182Z,8.90
2023-02-21T05:01:56.929Z,8.90
2023-02-21T05:04:25.742Z,9.00
2023-02-21T05:06:54.512Z,8.90
2023-02-21T05:09:23.275Z,8.80
2023-02-21T05:11:52.051Z,8.70
2023-02-21T05:14:20.955Z,8.80
2023-02-21T05:16:51.000Z,8.90
2023-02-21T05:19:27.251Z,9.10
2023-02-21T05:21:57.841Z,9.00
2023-02-21T05:24:26.917Z,8.90
2023-02-21T05:26:56.048Z,8.90
2023-02-21T05:29:24.866Z,8.90
2023-02-21T05:31:54.937Z,8.90
2023-02-21T05:34:23.551Z,8.70
2023-02-21T05:36:52.231Z,8.70
2023-02-21T05:39:20.883Z,8.80
2023-02-21T05:41:50.440Z,8.80
2023-02-21T05:44:19.791Z,8.80
2023-02-21T05:46:48.719Z,8.80
2023-02-21T05:49:18.940Z,8.80
2023-02-21T05:51:47.735Z,8.80
2023-02-21T05:54:18.682Z,9.00
2023-02-21T05:56:49.492Z,9.00
2023-02-21T05:59:20.635Z,8.90
2023-02-21T06:01:50.211Z,8.90
2023-02-21T06:04:20.753Z,8.80
2023-02-21T06:06:49.426Z,8.80
2023-02-21T06:09:19.256Z,8.80
2023-02-21T06:11:48.046Z,8.70
2023-02-21T06:14:19.435Z,8.70
2023-02-21T06:16:48.400Z,8.90
2023-02-21T06:19:19.054Z,8.90
2023-02-21T06:21:50.113Z,8.90
2023-02-21T06:24:18.934Z,8.90
2023-02-21T06:26:47.941Z,8.80
2023-02-21T06:29:16.592Z,8.70
2023-02-21T06:31:45.341Z,8.70
2023-02-21T06:34:14.223Z,8.80
2023-02-21T06:36:42.990Z,8.80
2023-02-21T06:39:14.115Z,8.90
2023-02-21T06:41:42.821Z,8.90
2023-02-21T06:44:12.775Z,8.90
2023-02-21T06:46:41.656Z,8.90
2023-02-21T06:49:10.901Z,8.70
2023-02-21T06:51:41.351Z,8.80
2023-02-21T06:54:10.700Z,8.80
2023-02-21T06:56:40.841Z,9.00
2023-02-21T06:59:09.606Z,9.00
2023-02-21T07:01:38.440Z,8.90
2023-02-21T07:04:07.300Z,8.80
2023-02-21T07:06:36.111Z,8.80
2023-02-21T07:09:05.416Z,8.60
2023-02-21T07:11:39.969Z,8.50
2023-02-21T07:14:11.336Z,8.50
2023-02-21T07:16:40.154Z,8.40
2023-02-21T07:19:08.808Z,8.40
2023-02-21T07:24:05.870Z,8.30
2023-02-21T07:26:34.687Z,8.30
2023-02-21T07:29:03.482Z,8.30
2023-02-21T07:31:34.196Z,8.40
2023-02-21T07:34:03.144Z,8.50
2023-02-21T07:36:32.197Z,8.50
2023-02-21T07:39:01.086Z,8.60
2023-02-21T07:41:29.827Z,8.70
2023-02-21T07:43:59.049Z,8.80
2023-02-21T07:46:29.944Z,8.90
2023-02-21T07:49:00.213Z,8.80
2023-02-21T07:51:30.191Z,8.90
2023-02-21T07:53:59.021Z,8.90
2023-02-21T07:56:27.753Z,8.80
2023-02-21T07:58:56.520Z,8.90
2023-02-21T08:01:27.033Z,9.00
2023-02-21T08:03:55.777Z,9.00
2023-02-21T08:06:25.971Z,9.10
2023-02-21T08:08:54.697Z,9.20
2023-02-21T08:11:23.814Z,9.10
2023-02-21T08:13:52.636Z,8.90
2023-02-21T08:16:21.623Z,8.90
2023-02-21T08:18:50.882Z,8.90
2023-02-21T08:21:19.633Z,9.00
2023-02-21T08:23:49.842Z,8.80
2023-02-21T08:26:18.526Z,8.80
2023-02-21T08:28:47.369Z,8.80
2023-02-21T08:31:16.488Z,8.90
2023-02-21T08:33:46.275Z,9.10
2023-02-21T08:36:15.215Z,9.20
2023-02-21T08:38:43.927Z,9.40
2023-02-21T08:41:14.293Z,9.50
2023-02-21T08:43:43.235Z,9.50
2023-02-21T08:46:16.122Z,9.60
2023-02-21T08:48:45.045Z,9.70
2023-02-21T08:51:14.278Z,9.70
2023-02-21T08:53:44.319Z,9.70
2023-02-21T08:56:19.257Z,9.80
2023-02-21T08:58:47.999Z,9.80
2023-02-21T09:01:17.444Z,9.60
2023-02-21T09:03:46.548Z,9.70
2023-02-21T09:06:15.821Z,9.70
2023-02-21T09:08:44.829Z,9.70
2023-02-21T09:11:15.174Z,9.80
2023-02-21T09:13:43.998Z,9.80
2023-02-21T09:16:13.005Z,9.80
2023-02-21T09:18:41.753Z,9.80
2023-02-21T09:21:10.653Z,9.90
2023-02-21T09:23:39.357Z,10.10
2023-02-21T09:26:08.501Z,10.00
2023-02-21T09:28:43.395Z,10.00
2023-02-21T09:31:12.401Z,10.10
2023-02-21T09:33:41.730Z,10.10
2023-02-21T09:36:11.730Z,10.10
2023-02-21T09:38:41.970Z,9.80
2023-02-21T09:41:14.141Z,9.60
2023-02-21T09:43:47.216Z,9.60
2023-02-21T09:46:19.476Z,9.60
2023-02-21T09:48:49.228Z,9.70
2023-02-21T09:51:18.357Z,9.70
2023-02-21T09:53:49.065Z,9.70
2023-02-21T09:56:23.057Z,9.70
2023-02-21T09:58:53.316Z,9.90
2023-02-21T10:01:31.399Z,10.10
2023-02-21T10:04:14.978Z,10.20
2023-02-21T10:06:50.447Z,10.10
2023-02-21T10:09:30.652Z,10.00
2023-02-21T10:12:07.607Z,10.10
2023-02-21T10:15:12.726Z,9.90
2023-02-21T10:17:47.186Z,10.10
2023-02-21T10:20:19.312Z,10.00
2023-02-21T10:22:49.316Z,10.00
2023-02-21T10:25:26.128Z,10.10
2023-02-21T10:27:55.315Z,10.20
2023-02-21T10:30:31.662Z,9.90
2023-02-21T10:33:00.561Z,10.00
2023-02-21T10:35:29.311Z,10.00
2023-02-21T10:38:00.555Z,10.00
2023-02-21T10:40:34.514Z,10.10
2023-02-21T10:43:10.189Z,10.20
2023-02-21T10:45:47.047Z,10.10
2023-02-21T10:48:18.017Z,10.10
2023-02-21T10:50:52.645Z,9.90
2023-02-21T10:53:28.744Z,10.00
2023-02-21T10:56:20.274Z,10.00
2023-02-21T10:58:51.063Z,9.80
2023-02-21T11:01:25.578Z,9.80
2023-02-21T11:03:56.590Z,10.00
2023-02-21T11:06:34.804Z,10.00
2023-02-21T11:09:04.135Z,10.10
2023-02-21T11:11:37.167Z,10.10
2023-02-21T11:14:23.145Z,10.30
2023-02-21T11:17:14.176Z,10.30
2023-02-21T11:19:54.440Z,10.50
2023-02-21T11:22:25.538Z,10.70
2023-02-21T11:25:05.222Z,10.60
2023-02-21T11:27:37.363Z,10.70
2023-02-21T11:30:15.027Z,10.60
2023-02-21T11:32:51.279Z,10.50
2023-02-21T11:35:27.139Z,10.50
2023-02-21T11:37:58.491Z,10.60
2023-02-21T11:40:42.047Z,10.70
2023-02-21T11:43:20.755Z,10.60
2023-02-21T11:46:17.901Z,10.60
2023-02-21T11:48:56.341Z,11.00
2023-02-21T11:51:36.049Z,10.90
2023-02-21T11:54:06.236Z,10.90
2023-02-21T11:56:43.565Z,11.00
2023-02-21T11:59:26.286Z,10.90
2023-02-21T12:02:09.049Z,11.00
2023-02-21T12:04:53.436Z,11.00
2023-02-21T12:07:31.535Z,10.80
2023-02-21T12:10:06.202Z,10.80
2023-02-21T12:12:46.390Z,10.90
2023-02-21T12:15:23.670Z,10.90
2023-02-21T12:18:01.978Z,10.90
2023-02-21T12:20:50.186Z,10.90
2023-02-21T12:23:26.573Z,11.00
2023-02-21T12:26:16.592Z,11.00
2023-02-21T12:29:04.860Z,11.00
2023-02-21T12:31:49.702Z,11.10
2023-02-21T12:34:31.825Z,11.10
2023-02-21T12:37:15.508Z,11.10
2023-02-21T12:39:55.475Z,11.20
2023-02-21T12:42:43.233Z,11.10
2023-02-21T12:45:29.934Z,11.20
2023-02-21T12:48:03.186Z,11.50
2023-02-21T12:50:36.577Z,11.60
2023-02-21T12:53:11.336Z,11.50
2023-02-21T12:55:43.620Z,11.60
2023-02-21T12:58:19.596Z,11.60
2023-02-21T13:00:53.873Z,11.70
2023-02-21T13:03:37.527Z,11.80
2023-02-21T13:06:12.418Z,11.80
2023-02-21T13:08:51.355Z,11.70
2023-02-21T13:11:26.786Z,11.80
2023-02-21T13:13:56.087Z,11.90
2023-02-21T13:16:25.950Z,11.80
2023-02-21T13:19:00.283Z,11.60
2023-02-21T13:21:42.801Z,11.50
2023-02-21T13:24:16.813Z,11.30
2023-02-21T13:27:01.593Z,11.40
2023-02-21T13:29:33.857Z,11.30
2023-02-21T13:32:07.484Z,11.50
2023-02-21T13:34:39.274Z,11.50
2023-02-21T13:37:14.248Z,11.60
2023-02-21T13:39:47.726Z,11.60
2023-02-21T13:42:20.561Z,11.20
2023-02-21T13:44:52.085Z,11.20
2023-02-21T13:47:22.756Z,11.30
2023-02-21T13:49:56.605Z,11.50
2023-02-21T13:52:51.215Z,11.50
2023-02-21T13:55:31.605Z,11.50
2023-02-21T13:58:32.314Z,11.50
2023-02-21T14:01:26.871Z,11.40
2023-02-21T14:03:58.610Z,11.40
2023-02-21T14:06:34.630Z,11.60
2023-02-21T14:09:11.688Z,11.70
2023-02-21T14:11:49.129Z,11.70
2023-02-21T14:14:25.629Z,11.80
2023-02-21T14:17:02.164Z,11.80
2023-02-21T14:19:37.000Z,11.90
2023-02-21T14:22:11.513Z,11.90
2023-02-21T14:24:43.331Z,11.70
2023-02-21T14:27:37.554Z,11.80
2023-02-21T14:30:29.298Z,11.80
2023-02-21T14:33:09.794Z,11.60
2023-02-21T14:35:50.680Z,11.60
2023-02-21T14:38:24.440Z,11.80
2023-02-21T14:41:06.303Z,11.90
2023-02-21T14:44:15.997Z,11.70
2023-02-21T14:47:08.181Z,11.60
2023-02-21T14:50:20.233Z,11.60
2023-02-21T14:53:27.591Z,11.50
2023-02-21T14:56:32.352Z,11.40
2023-02-21T14:59:32.884Z,11.30
2023-02-21T15:02:15.368Z,11.40
2023-02-21T15:04:49.450Z,11.40
2023-02-21T15:07:22.989Z,11.30
2023-02-21T15:10:10.695Z,11.10
2023-02-21T15:12:43.682Z,11.10
2023-02-21T15:15:20.176Z,11.30
2023-02-21T15:18:07.767Z,11.40
2023-02-21T15:20:38.691Z,11.50
2023-02-21T15:23:14.743Z,11.50
2023-02-21T15:25:44.482Z,11.70
2023-02-21T15:28:24.703Z,11.70
2023-02-21T15:31:01.186Z,11.70
2023-02-21T15:33:33.992Z,11.80
2023-02-21T15:36:06.911Z,11.80
2023-02-21T15:38:40.806Z,11.80
2023-02-21T15:41:16.970Z,11.90
2023-02-21T15:43:50.291Z,11.70
2023-02-21T15:46:26.038Z,11.40
2023-02-21T15:48:57.423Z,11.10
2023-02-21T15:51:26.514Z,11.00
2023-02-21T15:54:23.347Z,11.10
2023-02-21T15:57:02.736Z,11.20
2023-02-21T15:59:34.528Z,11.10
2023-02-21T16:02:18.005Z,11.10
2023-02-21T16:04:48.490Z,11.40
2023-02-21T16:07:25.046Z,11.30
2023-02-21T16:10:00.814Z,11.10
2023-02-21T16:12:35.918Z,10.90
2023-02-21T16:15:09.289Z,10.90
2023-02-21T16:17:40.974Z,10.70
2023-02-21T16:20:19.004Z,10.70
2023-02-21T16:23:08.048Z,10.80
2023-02-21T16:25:55.062Z,10.90
2023-02-21T16:28:23.804Z,10.90
2023-02-21T16:30:53.464Z,10.80
2023-02-21T16:33:23.781Z,10.90
2023-02-21T16:35:52.872Z,10.90
2023-02-21T16:38:24.188Z,10.80
2023-02-21T16:40:53.566Z,10.80
2023-02-21T16:43:24.152Z,10.80
2023-02-21T16:45:54.795Z,10.90
2023-02-21T16:48:28.708Z,10.90
2023-02-21T16:50:57.421Z,10.90
2023-02-21T16:53:26.201Z,11.00
2023-02-21T16:55:55.083Z,11.00
2023-02-21T16:58:27.960Z,11.00
2023-02-21T17:00:58.526Z,10.80
2023-02-21T17:03:29.483Z,10.70
2023-02-21T17:05:59.626Z,10.60
2023-02-21T17:08:28.777Z,10.50
2023-02-21T17:10:58.516Z,10.30
2023-02-21T17:13:27.275Z,10.20
2023-02-21T17:15:56.136Z,10.20
2023-02-21T17:18:26.493Z,10.20
2023-02-21T17:20:57.017Z,10.10
2023-02-21T17:23:25.769Z,10.20
2023-02-21T17:25:54.483Z,10.10
2023-02-21T17:28:23.587Z,10.00
2023-02-21T17:30:52.625Z,9.90
2023-02-21T17:33:21.495Z,9.80
2023-02-21T17:35:50.251Z,9.90
2023-02-21T17:38:20.485Z,9.90
2023-02-21T17:40:49.616Z,9.90
2023-02-21T17:43:18.436Z,9.90
2023-02-21T17:45:47.238Z,9.80
2023-02-21T17:48:15.967Z,9.70
2023-02-21T17:50:44.719Z,9.70
2023-02-21T17:53:13.521Z,9.60
2023-02-21T17:55:43.843Z,9.50
2023-02-21T17:58:12.610Z,9.50
2023-02-21T18:00:43.053Z,9.50
2023-02-21T18:03:12.162Z,9.50
2023-02-21T18:05:41.005Z,9.40
2023-02-21T18:08:09.670Z,9.40
2023-02-21T18:10:38.536Z,9.50
2023-02-21T18:13:08.764Z,9.50
2023-02-21T18:15:38.402Z,9.40
2023-02-21T18:18:08.367Z,9.40
2023-02-21T18:20:37.402Z,9.50
2023-02-21T18:23:07.341Z,9.30
2023-02-21T18:25:37.001Z,9.30
2023-02-21T18:28:06.252Z,9.30
2023-02-21T18:30:36.396Z,9.30
2023-02-21T18:33:05.403Z,9.30
2023-02-21T18:35:34.372Z,9.40
2023-02-21T18:38:04.720Z,9.30
2023-02-21T18:40:37.779Z,9.20
2023-02-21T18:43:07.201Z,9.20
2023-02-21T18:45:38.384Z,9.20
2023-02-21T18:48:07.515Z,9.20
2023-02-21T18:50:36.864Z,9.20
2023-02-21T18:53:05.980Z,9.20
2023-02-21T18:55:35.243Z,9.10
2023-02-21T18:58:04.505Z,9.00
2023-02-21T19:00:36.450Z,9.00
2023-02-21T19:03:08.234Z,9.00
2023-02-21T19:05:37.438Z,9.00
2023-02-21T19:08:06.543Z,9.10
2023-02-21T19:10:35.640Z,9.00
2023-02-21T19:13:05.406Z,9.00
2023-02-21T19:15:34.499Z,8.90
2023-02-21T19:18:03.396Z,8.80
2023-02-21T19:20:33.514Z,8.80
2023-02-21T19:23:02.230Z,8.80
2023-02-21T19:25:31.129Z,8.80
2023-02-21T19:28:01.320Z,8.60
2023-02-21T19:30:33.763Z,8.60
2023-02-21T19:33:04.153Z,8.70
2023-02-21T19:35:35.769Z,8.70
2023-02-21T19:38:07.093Z,8.60
2023-02-21T19:40:37.179Z,8.70
2023-02-21T19:43:06.487Z,8.60
2023-02-21T19:45:35.466Z,8.60
2023-02-21T19:48:04.888Z,8.60
2023-02-21T19:50:36.206Z,8.50
2023-02-21T19:53:05.393Z,8.50
2023-02-21T19:55:34.552Z,8.50
2023-02-21T19:58:07.067Z,8.40
2023-02-21T20:00:35.994Z,8.40
2023-02-21T20:03:05.587Z,8.40
2023-02-21T20:05:36.275Z,8.50
2023-02-21T20:08:05.725Z,8.50
2023-02-21T20:10:34.902Z,8.50
2023-02-21T20:13:06.376Z,8.50
2023-02-21T20:15:35.967Z,8.40
2023-02-21T20:18:05.684Z,8.30
2023-02-21T20:20:36.109Z,8.30
2023-02-21T20:23:05.119Z,8.40
2023-02-21T20:25:34.374Z,8.40
2023-02-21T20:28:03.995Z,8.40
2023-02-21T20:30:33.021Z,8.30
2023-02-21T20:33:02.584Z,8.20
2023-02-21T20:35:31.515Z,8.20
2023-02-21T20:38:05.402Z,8.20
2023-02-21T20:40:35.325Z,8.00
2023-02-21T20:43:04.513Z,8.00
2023-02-21T20:45:33.779Z,8.10
2023-02-21T20:48:02.720Z,8.10
2023-02-21T20:50:31.637Z,8.10
2023-02-21T20:53:02.546Z,8.10
2023-02-21T20:55:31.284Z,8.00
2023-02-21T20:58:00.287Z,8.00
2023-02-21T21:00:30.460Z,8.00
2023-02-21T21:03:00.279Z,8.00
2023-02-21T21:05:29.253Z,8.00
2023-02-21T21:07:58.352Z,7.90
2023-02-21T21:10:28.549Z,7.90
2023-02-21T21:12:58.136Z,7.90
2023-02-21T21:15:30.094Z,7.90
2023-02-21T21:17:58.916Z,7.90
2023-02-21T21:20:28.124Z,7.80
2023-02-21T21:22:57.179Z,7.80
2023-02-21T21:25:26.051Z,7.80
2023-02-21T21:27:56.273Z,7.80
2023-02-21T21:30:25.229Z,7.80
2023-02-21T21:32:54.287Z,7.80
2023-02-21T21:35:29.334Z,7.70
2023-02-21T21:37:59.400Z,7.70
2023-02-21T21:40:28.908Z,7.70
2023-02-21T21:42:59.257Z,7.70
2023-02-21T21:45:29.183Z,7.70
2023-02-21T21:47:58.890Z,7.60
2023-02-21T21:50:28.218Z,7.60
2023-02-21T21:52:59.009Z,7.50
2023-02-21T21:55:29.562Z,7.50
2023-02-21T21:57:59.779Z,7.40
2023-02-21T22:00:30.640Z,7.50
2023-02-21T22:03:01.994Z,7.50
2023-02-21T22:05:32.694Z,7.50
2023-02-21T22:08:01.640Z,7.30
2023-02-21T22:10:30.984Z,7.40
2023-02-21T22:13:02.424Z,7.40
2023-02-21T22:15:31.443Z,7.50
2023-02-21T22:18:03.936Z,7.50
2023-02-21T22:20:32.594Z,7.70
2023-02-21T22:23:01.208Z,7.80
2023-02-21T22:25:32.214Z,7.70
2023-02-21T22:28:09.420Z,7.60
2023-02-21T22:30:39.217Z,7.60
2023-02-21T22:33:13.456Z,7.60
2023-02-21T22:35:42.505Z,7.70
2023-02-21T22:38:14.386Z,7.70
2023-02-21T22:40:44.015Z,7.70
2023-02-21T22:43:14.627Z,7.70
2023-02-21T22:45:49.704Z,7.70
2023-02-21T22:48:20.915Z,7.60
2023-02-21T22:50:50.212Z,7.60
2023-02-21T22:53:21.465Z,7.60
2023-02-21T22:55:52.274Z,7.70
2023-02-21T22:58:32.636Z,7.70
2023-02-21T23:01:01.349Z,7.80
2023-02-21T23:03:32.012Z,7.80
2023-02-21T23:06:02.225Z,7.90
2023-02-21T23:08:31.185Z,7.90
2023-02-21T23:10:59.871Z,8.00
2023-02-21T23:13:29.141Z,8.00
2023-02-21T23:15:59.627Z,8.00
2023-02-21T23:18:30.138Z,8.00
2023-02-21T23:20:59.251Z,8.00
2023-02-21T23:23:29.515Z,8.00
2023-02-21T23:25:59.686Z,8.10
2023-02-21T23:28:30.799Z,8.10
2023-02-21T23:31:00.913Z,8.10
2023-02-21T23:33:31.015Z,8.00
2023-02-21T23:35:59.812Z,8.00
2023-02-21T23:38:29.090Z,8.00
2023-02-21T23:41:01.822Z,8.00
2023-02-21T23:43:35.729Z,8.10
2023-02-21T23:46:07.760Z,8.00
2023-02-21T23:48:37.643Z,7.90
2023-02-21T23:51:08.205Z,8.00
2023-02-21T23:53:37.957Z,7.90
2023-02-21T23:56:13.128Z,7.90
2023-02-21T23:58:46.216Z,7.80
